Time;durP1;ratioP1;P1;durP2;ratioP2;P2;SDS_P1;SDS_P2;PMS_P1;PMS_P2;Temp;Humidity;BMP_temperature;BMP_pressure;BME280_temperature;BME280_humidity;BME280_pressure;Samples;Min_cycle;Max_cycle;Signal;HPM_P1;HPM_P2
2024/03/04 00:00:10;;;;;;;3.87;3.10;;;;;;;10.17;63.26;99117.50;4486567;31;34098;-82
2024/03/04 00:02:38;;;;;;;8.02;3.62;;;;;;;10.36;62.64;99118.25;4474051;31;33567;-82
2024/03/04 00:05:06;;;;;;;3.37;3.17;;;;;;;10.36;62.31;99123.53;4460906;31;34111;-82
2024/03/04 00:07:35;;;;;;;2.67;2.47;;;;;;;10.22;62.83;99126.88;4478118;31;34456;-82
2024/03/04 00:10:03;;;;;;;1.75;1.65;;;;;;;10.18;62.67;99124.47;4487467;31;32849;-83
2024/03/04 00:12:32;;;;;;;1.77;1.67;;;;;;;10.16;62.53;99115.78;4472400;31;33164;-83
2024/03/04 00:14:59;;;;;;;3.12;1.62;;;;;;;10.11;62.01;99115.16;4486512;31;32740;-83
2024/03/04 00:17:29;;;;;;;2.90;2.28;;;;;;;10.10;62.08;99114.31;4472655;31;34651;-83
2024/03/04 00:19:56;;;;;;;2.35;1.83;;;;;;;9.87;63.03;99107.59;4472642;31;34306;-83
2024/03/04 00:22:24;;;;;;;2.08;1.73;;;;;;;9.91;63.06;99111.78;4460576;31;32266;-83
2024/03/04 00:24:52;;;;;;;1.85;1.70;;;;;;;9.93;62.67;99114.38;4485770;31;33690;-82
2024/03/04 00:27:26;;;;;;;0.75;0.75;;;;;;;10.04;62.53;99117.28;4473940;31;33957;-83
2024/03/04 00:29:54;;;;;;;2.58;2.37;;;;;;;9.99;62.60;99109.59;4473497;31;32228;-83
2024/03/04 00:32:22;;;;;;;1.08;1.02;;;;;;;9.81;63.85;99115.84;4484851;31;33617;-83
2024/03/04 00:34:49;;;;;;;1.52;0.98;;;;;;;9.80;63.73;99118.56;4472793;31;33884;-84
2024/03/04 00:37:17;;;;;;;1.95;1.80;;;;;;;9.99;63.10;99114.88;4469259;31;33557;-83
2024/03/04 00:39:46;;;;;;;1.27;1.27;;;;;;;10.17;62.72;99106.94;4500829;31;34241;-84
2024/03/04 00:42:13;;;;;;;1.30;1.30;;;;;;;10.03;62.99;99115.59;4473835;31;33589;-84
2024/03/04 00:44:42;;;;;;;1.23;0.70;;;;;;;10.03;62.75;99112.94;4473631;31;32906;-84
2024/03/04 00:47:09;;;;;;;1.67;0.95;;;;;;;9.82;64.50;99106.97;4472536;31;32440;-84
2024/03/04 00:49:37;;;;;;;8.00;3.33;;;;;;;9.86;64.34;99102.41;4473002;31;32719;-84
2024/03/04 00:52:05;;;;;;;2.05;1.85;;;;;;;9.95;64.13;99113.34;4460281;31;32971;-84
2024/03/04 00:54:33;;;;;;;7.15;2.10;;;;;;;10.00;63.85;99111.31;4469241;31;33075;-84
2024/03/04 00:57:02;;;;;;;1.42;1.33;;;;;;;10.03;64.64;99109.47;4455306;31;33072;-83
2024/03/04 00:59:30;;;;;;;5.72;1.52;;;;;;;10.09;64.12;99106.50;4472388;31;32870;-84
2024/03/04 01:01:58;;;;;;;1.85;1.20;;;;;;;10.08;64.13;99117.97;4471889;31;33531;-83
2024/03/04 01:04:25;;;;;;;1.37;1.27;;;;;;;10.20;63.43;99122.59;4469538;31;33375;-83
2024/03/04 01:06:53;;;;;;;1.52;1.48;;;;;;;10.14;64.00;99107.94;4484731;31;33019;-83
2024/03/04 01:09:21;;;;;;;1.45;0.82;;;;;;;10.25;63.83;99104.75;4468115;31;33755;-83
2024/03/04 01:11:49;;;;;;;2.08;1.55;;;;;;;10.19;63.48;99112.97;4486221;31;33862;-83
2024/03/04 01:14:17;;;;;;;0.57;0.57;;;;;;;10.18;64.17;99108.66;4485713;31;34737;-83
2024/03/04 01:16:48;;;;;;;1.25;1.20;;;;;;;10.12;63.65;99112.47;4482608;31;32268;-83
2024/03/04 01:19:20;;;;;;;2.28;2.15;;;;;;;10.10;64.06;99113.47;4486147;31;32174;-83
2024/03/04 01:21:48;;;;;;;0.98;0.98;;;;;;;10.20;63.90;99115.53;4473810;31;33654;-83
2024/03/04 01:24:17;;;;;;;1.92;1.10;;;;;;;10.00;64.10;99113.09;4485270;31;33925;-83
2024/03/04 01:26:45;;;;;;;0.60;0.60;;;;;;;10.06;64.47;99117.19;4472845;31;33508;-83
2024/03/04 01:29:13;;;;;;;1.08;1.00;;;;;;;10.20;64.55;99117.31;4473062;31;33298;-83
2024/03/04 01:31:42;;;;;;;6.72;1.10;;;;;;;10.26;64.30;99111.78;4472878;31;34192;-83
2024/03/04 01:34:10;;;;;;;0.98;0.98;;;;;;;10.28;64.14;99112.53;4473005;31;33360;-83
2024/03/04 01:36:38;;;;;;;0.60;0.60;;;;;;;10.39;63.82;99101.37;4473113;31;34298;-83
2024/03/04 01:39:05;;;;;;;2.12;1.95;;;;;;;10.29;64.01;99108.94;4466707;31;33257;-82
2024/03/04 01:41:36;;;;;;;5.12;1.45;;;;;;;10.24;64.35;99097.78;4455079;31;33386;-83
2024/03/04 01:44:04;;;;;;;0.57;0.52;;;;;;;10.33;64.26;99099.94;4485881;31;33834;-82
2024/03/04 01:46:32;;;;;;;0.68;0.68;;;;;;;10.29;64.55;99111.59;4484954;31;33911;-81
2024/03/04 01:49:00;;;;;;;0.77;0.77;;;;;;;10.43;64.40;99110.84;4459807;31;33267;-83
2024/03/04 01:51:29;;;;;;;2.35;1.80;;;;;;;10.57;63.41;99099.53;4491364;31;33811;-83
2024/03/04 01:53:57;;;;;;;2.90;1.17;;;;;;;10.42;64.26;99110.00;4477513;31;34679;-82
2024/03/04 01:56:24;;;;;;;0.95;0.80;;;;;;;10.41;63.81;99100.38;4488968;31;33732;-82
2024/03/04 01:58:53;;;;;;;1.35;0.90;;;;;;;10.40;64.07;99101.31;4480338;31;34166;-82
2024/03/04 02:01:21;;;;;;;0.70;0.70;;;;;;;10.46;63.91;99108.06;4464895;31;33209;-84
2024/03/04 02:03:49;;;;;;;0.77;0.75;;;;;;;10.38;64.52;99111.09;4490887;31;34173;-84
2024/03/04 02:06:17;;;;;;;2.60;1.42;;;;;;;10.68;62.66;99111.22;4478728;31;33170;-84
2024/03/04 02:08:45;;;;;;;0.88;0.82;;;;;;;10.35;64.20;99119.19;4480251;31;34003;-84
2024/03/04 02:11:13;;;;;;;1.00;0.65;;;;;;;10.45;64.16;99114.28;4477826;31;33617;-84
2024/03/04 02:13:41;;;;;;;1.55;1.17;;;;;;;10.42;64.35;99111.78;4463949;31;33065;-84
2024/03/04 02:16:09;;;;;;;7.78;2.28;;;;;;;10.49;63.73;99095.56;4463881;31;32907;-83
2024/03/04 02:18:37;;;;;;;1.02;1.02;;;;;;;10.39;64.34;99102.22;4491132;31;33106;-84
2024/03/04 02:21:06;;;;;;;1.55;0.90;;;;;;;10.28;64.87;99099.34;4476049;31;33732;-81
2024/03/04 02:23:34;;;;;;;0.50;0.50;;;;;;;10.51;64.44;99083.09;4491880;31;33962;-81
2024/03/04 02:26:03;;;;;;;1.92;1.77;;;;;;;10.54;64.50;99094.41;4464063;31;33353;-81
2024/03/04 02:28:33;;;;;;;1.85;1.75;;;;;;;10.62;63.50;99097.50;4476805;31;33298;-79
2024/03/04 02:31:01;;;;;;;1.77;1.67;;;;;;;10.70;63.36;99103.22;4478028;31;32878;-80
2024/03/04 02:33:29;;;;;;;1.00;1.00;;;;;;;10.78;62.30;99103.66;4477007;31;32205;-81
2024/03/04 02:35:58;;;;;;;0.82;0.82;;;;;;;10.88;62.11;99099.56;4490925;31;34173;-81
2024/03/04 02:38:27;;;;;;;1.65;1.00;;;;;;;10.49;63.03;99098.19;4476741;31;33765;-81
2024/03/04 02:40:59;;;;;;;0.10;0.10;;;;;;;10.50;62.96;99099.88;4478115;31;32729;-81
2024/03/04 02:43:27;;;;;;;0.30;0.30;;;;;;;10.43;63.13;99114.34;4479359;31;33479;-81
2024/03/04 02:45:55;;;;;;;0.80;0.80;;;;;;;10.49;62.87;99100.81;4492011;31;33317;-81
2024/03/04 02:48:23;;;;;;;0.60;0.60;;;;;;;10.45;62.90;99107.19;4478872;31;34423;-82
2024/03/04 02:50:50;;;;;;;0.95;0.95;;;;;;;10.27;62.59;99109.97;4480426;31;33588;-82
2024/03/04 02:53:18;;;;;;;0.77;0.77;;;;;;;10.24;63.30;99118.91;4490426;31;33708;-81
2024/03/04 02:55:46;;;;;;;0.52;0.52;;;;;;;10.36;63.11;99120.03;4478967;31;33737;-81
2024/03/04 02:58:14;;;;;;;0.50;0.50;;;;;;;10.18;63.67;99120.03;4477851;31;33034;-81
2024/03/04 03:00:41;;;;;;;0.70;0.70;;;;;;;10.33;63.11;99118.41;4494076;31;33193;-81
2024/03/04 03:03:09;;;;;;;0.40;0.40;;;;;;;10.24;63.81;99109.19;4491812;31;34674;-83
2024/03/04 03:05:37;;;;;;;0.73;0.73;;;;;;;10.24;63.45;99113.62;4478392;31;34695;-83
2024/03/04 03:08:06;;;;;;;1.73;1.48;;;;;;;10.20;63.66;99115.53;4478437;31;32628;-83
2024/03/04 03:10:35;;;;;;;1.30;1.20;;;;;;;10.12;63.74;99117.75;4479421;31;31864;-82
2024/03/04 03:13:03;;;;;;;2.12;1.70;;;;;;;10.06;63.51;99118.03;4491007;31;33713;-83
2024/03/04 03:15:31;;;;;;;1.25;1.17;;;;;;;10.08;64.36;99120.62;4478996;31;34294;-82
2024/03/04 03:18:00;;;;;;;1.92;0.77;;;;;;;10.01;64.80;99123.56;4481300;31;33828;-83
2024/03/04 03:20:28;;;;;;;1.30;1.27;;;;;;;9.75;65.91;99121.44;4485484;31;32847;-81
2024/03/04 03:22:56;;;;;;;1.33;1.20;;;;;;;9.98;64.69;99126.38;4481499;31;33278;-82
2024/03/04 03:25:23;;;;;;;0.47;0.47;;;;;;;10.25;64.17;99121.47;4492571;31;34466;-83
2024/03/04 03:27:52;;;;;;;6.00;4.00;;;;;;;10.36;64.30;99123.53;4477022;31;33856;-83
2024/03/04 03:30:20;;;;;;;1.35;0.88;;;;;;;10.12;65.32;99115.09;4480290;31;33793;-82
2024/03/04 03:32:48;;;;;;;1.05;1.05;;;;;;;10.28;64.41;99106.41;4466794;31;33128;-83
2024/03/04 03:35:15;;;;;;;2.95;2.75;;;;;;;10.44;64.78;99113.44;4479081;31;33898;-82
2024/03/04 03:37:45;;;;;;;2.33;1.55;;;;;;;10.56;64.11;99116.31;4477337;31;32221;-83
2024/03/04 03:40:13;;;;;;;1.00;1.00;;;;;;;10.56;64.22;99116.31;4481458;31;32489;-83
2024/03/04 03:42:42;;;;;;;3.97;2.37;;;;;;;10.43;64.89;99119.63;4491600;31;34026;-83
2024/03/04 03:45:10;;;;;;;0.88;0.88;;;;;;;10.51;65.03;99111.28;4479696;31;33954;-83
2024/03/04 03:47:37;;;;;;;2.05;1.95;;;;;;;10.46;65.65;99116.81;4476650;31;34108;-82
2024/03/04 03:50:05;;;;;;;1.42;1.33;;;;;;;10.48;65.19;99117.56;4461537;31;32015;-82
2024/03/04 03:52:34;;;;;;;4.20;2.47;;;;;;;10.37;65.55;99114.69;4469923;31;33667;-82
2024/03/04 03:55:03;;;;;;;1.62;1.17;;;;;;;10.64;64.59;99122.03;4492921;31;33750;-82
2024/03/04 03:57:30;;;;;;;2.30;1.98;;;;;;;10.76;64.11;99116.06;4490092;31;31037;-82
2024/03/04 04:00:18;;;;;;;1.80;1.15;;;;;;;10.60;63.98;99123.16;4491924;31;33706;-81
2024/03/04 04:02:49;;;;;;;0.82;0.65;;;;;;;10.62;64.94;99118.63;4493084;31;33658;-81
2024/03/04 04:05:17;;;;;;;1.58;1.48;;;;;;;10.65;64.73;99118.47;4477337;31;33227;-81
2024/03/04 04:07:45;;;;;;;2.33;1.55;;;;;;;10.70;64.03;99116.41;4481151;31;32765;-81
2024/03/04 04:10:14;;;;;;;2.47;1.75;;;;;;;10.63;64.40;99120.31;4477966;31;35134;-81
2024/03/04 04:12:42;;;;;;;3.78;2.22;;;;;;;10.75;63.92;99117.00;4479981;31;33641;-81
2024/03/04 04:15:10;;;;;;;1.25;1.25;;;;;;;10.62;64.67;99118.63;4490226;31;32319;-81
2024/03/04 04:17:38;;;;;;;2.95;2.75;;;;;;;10.70;64.34;99112.00;4478629;31;33044;-83
2024/03/04 04:20:07;;;;;;;2.42;1.85;;;;;;;10.73;64.63;99121.53;4492946;31;34301;-83
2024/03/04 04:22:36;;;;;;;1.10;1.10;;;;;;;10.73;64.44;99106.53;4465101;31;33955;-83
2024/03/04 04:25:04;;;;;;;2.35;2.05;;;;;;;10.60;64.72;99109.94;4491918;31;34140;-84
2024/03/04 04:27:32;;;;;;;6.03;3.00;;;;;;;10.66;64.31;99114.88;4489118;31;33269;-82
2024/03/04 04:30:00;;;;;;;4.57;2.08;;;;;;;10.71;64.00;99116.31;4490451;31;32484;-83
2024/03/04 04:32:28;;;;;;;2.05;1.95;;;;;;;10.61;64.68;99112.50;4478176;31;34366;-84
2024/03/04 04:34:56;;;;;;;0.43;0.43;;;;;;;10.59;64.43;99114.38;4467077;31;33143;-83
2024/03/04 04:37:23;;;;;;;2.70;1.20;;;;;;;10.62;64.54;99123.91;4477188;31;33177;-84
2024/03/04 04:39:51;;;;;;;1.20;1.17;;;;;;;10.73;63.96;99119.75;4491776;31;33517;-83
2024/03/04 04:42:19;;;;;;;2.53;1.35;;;;;;;10.74;63.75;99115.31;4465089;31;32954;-82
2024/03/04 04:44:46;;;;;;;1.35;1.25;;;;;;;10.52;64.75;99123.56;4477857;31;33421;-83
2024/03/04 04:47:15;;;;;;;1.70;1.60;;;;;;;10.57;64.30;99126.78;4465269;31;34641;-84
2024/03/04 04:49:43;;;;;;;3.65;1.87;;;;;;;10.64;63.94;99122.91;4462813;31;32796;-83
2024/03/04 04:52:10;;;;;;;1.77;1.60;;;;;;;10.75;63.60;99135.50;4493025;31;33714;-83
2024/03/04 04:54:39;;;;;;;3.53;2.60;;;;;;;10.72;63.14;99135.66;4478089;31;33544;-83
2024/03/04 04:57:07;;;;;;;1.37;1.33;;;;;;;10.58;63.75;99154.03;4491385;31;34004;-83
2024/03/04 04:59:35;;;;;;;2.62;2.42;;;;;;;10.76;62.63;99137.19;4494266;31;33897;-83
2024/03/04 05:02:03;;;;;;;1.20;1.15;;;;;;;10.76;61.92;99127.47;4477667;31;33069;-83
2024/03/04 05:04:31;;;;;;;5.78;2.17;;;;;;;10.56;62.69;99148.00;4477342;31;34791;-83
2024/03/04 05:07:19;;;;;;;0.77;0.77;;;;;;;10.19;63.29;99152.56;4480286;31;32429;-84
2024/03/04 05:09:47;;;;;;;0.55;0.55;;;;;;;10.25;63.49;99154.91;4478488;31;34556;-83
2024/03/04 05:12:15;;;;;;;0.95;0.95;;;;;;;10.39;62.47;99159.44;4476482;31;33975;-83
2024/03/04 05:14:46;;;;;;;0.98;0.98;;;;;;;10.39;63.06;99160.28;4479598;31;33634;-83
2024/03/04 05:17:15;;;;;;;0.30;0.30;;;;;;;10.25;63.66;99152.25;4478982;31;33525;-82
2024/03/04 05:19:44;;;;;;;5.05;2.72;;;;;;;10.32;62.56;99158.09;4479882;31;33323;-82
2024/03/04 05:22:13;;;;;;;1.60;1.50;;;;;;;10.11;63.46;99165.28;4488680;31;33245;-83
2024/03/04 05:24:41;;;;;;;0.85;0.85;;;;;;;10.09;63.48;99156.59;4479416;31;34482;-83
2024/03/04 05:27:09;;;;;;;2.28;2.17;;;;;;;10.11;63.12;99150.34;4477448;31;34127;-82
2024/03/04 05:29:36;;;;;;;3.08;1.33;;;;;;;10.06;63.07;99159.41;4477014;31;34137;-83
2024/03/04 05:32:14;;;;;;;2.78;1.52;;;;;;;10.09;63.03;99156.59;4466948;31;34061;-83
2024/03/04 05:34:43;;;;;;;2.20;2.10;;;;;;;10.11;62.81;99165.28;4492800;31;33590;-83
2024/03/04 05:37:11;;;;;;;2.05;1.95;;;;;;;10.05;62.18;99162.97;4478583;31;33054;-84
2024/03/04 05:39:39;;;;;;;3.33;1.52;;;;;;;9.96;62.65;99172.19;4468448;31;33079;-83
2024/03/04 05:42:08;;;;;;;1.87;1.77;;;;;;;9.69;64.04;99174.47;4463438;31;34071;-83
2024/03/04 05:44:35;;;;;;;3.17;2.85;;;;;;;9.97;62.74;99172.16;4477460;31;34434;-84
2024/03/04 05:47:03;;;;;;;4.32;1.20;;;;;;;9.96;62.87;99165.16;4468101;31;33281;-84
2024/03/04 05:49:31;;;;;;;0.43;0.43;;;;;;;10.02;62.52;99171.91;4478450;31;32321;-84
2024/03/04 05:51:59;;;;;;;2.45;1.98;;;;;;;10.01;62.33;99168.38;4479188;31;34354;-83
2024/03/04 05:54:27;;;;;;;3.95;2.00;;;;;;;9.87;62.79;99170.87;4477034;31;32803;-84
2024/03/04 05:56:55;;;;;;;1.90;1.73;;;;;;;10.09;62.52;99173.28;4473645;31;32705;-84
2024/03/04 05:59:22;;;;;;;0.98;0.98;;;;;;;9.96;62.81;99173.06;4478460;31;33003;-84
2024/03/04 06:01:50;;;;;;;6.30;1.98;;;;;;;9.90;63.36;99178.66;4490189;31;33758;-83
2024/03/04 06:04:18;;;;;;;2.33;1.17;;;;;;;10.01;63.34;99180.72;4477091;31;34063;-84
2024/03/04 06:06:46;;;;;;;3.85;1.73;;;;;;;10.05;63.25;99186.72;4476004;31;34221;-84
2024/03/04 06:09:15;;;;;;;2.17;2.05;;;;;;;9.95;63.99;99181.91;4491216;31;33325;-83
2024/03/04 06:11:43;;;;;;;7.32;2.50;;;;;;;10.22;62.87;99178.78;4474674;31;33954;-84
2024/03/04 06:14:12;;;;;;;1.35;1.35;;;;;;;10.41;62.18;99184.84;4477220;31;33930;-83
2024/03/04 06:16:39;;;;;;;4.10;2.53;;;;;;;10.12;63.54;99174.94;4476514;31;33530;-82
2024/03/04 06:19:08;;;;;;;2.10;1.90;;;;;;;10.03;63.88;99172.75;4478642;31;34138;-83
2024/03/04 06:21:38;;;;;;;1.20;1.08;;;;;;;9.86;64.46;99171.81;4462400;31;33468;-83
2024/03/04 06:24:06;;;;;;;1.90;1.33;;;;;;;10.11;63.79;99173.19;4477658;31;32681;-79
2024/03/04 06:26:34;;;;;;;2.35;0.77;;;;;;;10.17;63.63;99175.53;4463636;31;32280;-80
2024/03/04 06:29:01;;;;;;;0.77;0.77;;;;;;;9.97;64.25;99180.06;4476880;31;32481;-83
2024/03/04 06:31:29;;;;;;;3.95;1.95;;;;;;;9.98;64.55;99180.91;4462871;31;33289;-83
2024/03/04 06:33:57;;;;;;;1.27;1.17;;;;;;;9.82;65.08;99186.09;4478000;31;33738;-82
2024/03/04 06:36:41;;;;;;;3.85;2.53;;;;;;;10.03;64.44;99189.44;4477134;31;33299;-82
2024/03/04 06:39:09;;;;;;;0.65;0.65;;;;;;;10.01;64.68;99207.09;4474070;31;33948;-82
2024/03/04 06:41:37;;;;;;;7.87;3.62;;;;;;;9.87;65.68;99218.34;4473194;31;33239;-82
2024/03/04 06:44:06;;;;;;;1.65;1.55;;;;;;;10.29;64.30;99200.44;4487158;31;33552;-82
2024/03/04 06:46:37;;;;;;;2.17;2.03;;;;;;;10.56;62.86;99198.16;4477828;31;32601;-82
2024/03/04 06:49:04;;;;;;;0.85;0.85;;;;;;;10.25;63.91;99197.09;4485538;31;34244;-82
2024/03/04 06:51:35;;;;;;;1.67;1.58;;;;;;;10.33;63.56;99202.84;4477728;31;34727;-82
2024/03/04 06:54:03;;;;;;;2.87;2.70;;;;;;;10.65;62.69;99206.44;4477794;31;33365;-82
2024/03/04 06:56:32;;;;;;;2.28;2.08;;;;;;;10.52;62.89;99208.87;4478054;31;32185;-82
2024/03/04 06:59:01;;;;;;;2.65;2.55;;;;;;;10.29;63.62;99203.94;4461598;31;32648;-82
2024/03/04 07:01:29;;;;;;;2.97;2.45;;;;;;;10.58;63.31;99206.84;4474459;31;33714;-82
2024/03/04 07:03:58;;;;;;;0.75;0.75;;;;;;;10.45;62.79;99212.78;4467906;31;32828;-82
2024/03/04 07:06:27;;;;;;;11.93;3.12;;;;;;;10.61;62.91;99211.97;4487802;31;32772;-82
2024/03/04 07:08:56;;;;;;;2.25;2.15;;;;;;;10.67;63.07;99211.62;4469087;31;32741;-82
2024/03/04 07:11:24;;;;;;;1.30;1.27;;;;;;;10.83;62.13;99211.69;4472610;31;34242;-82
2024/03/04 07:13:56;;;;;;;1.98;1.40;;;;;;;10.66;62.82;99213.41;4471778;31;33908;-82
2024/03/04 07:16:24;;;;;;;2.42;2.22;;;;;;;10.68;63.04;99214.22;4477795;31;31975;-82
2024/03/04 07:18:52;;;;;;;1.73;1.52;;;;;;;10.85;63.19;99210.66;4484799;31;34911;-82
2024/03/04 07:21:20;;;;;;;0.80;0.80;;;;;;;11.03;62.77;99208.78;4474598;31;33274;-81
2024/03/04 07:23:48;;;;;;;5.00;3.03;;;;;;;11.00;62.78;99208.94;4462923;31;32969;-81
2024/03/04 07:26:19;;;;;;;7.65;3.45;;;;;;;11.12;62.10;99202.16;4464432;31;32035;-81
2024/03/04 07:28:47;;;;;;;0.98;0.93;;;;;;;11.22;62.13;99198.91;4487775;31;34639;-81
2024/03/04 07:31:15;;;;;;;2.62;2.10;;;;;;;11.31;60.90;99202.81;4473702;31;33383;-81
2024/03/04 07:33:43;;;;;;;9.30;2.42;;;;;;;10.97;61.34;99220.56;4488452;31;33603;-81
2024/03/04 07:36:11;;;;;;;6.03;2.20;;;;;;;11.45;60.30;99226.69;4485493;31;33921;-81
2024/03/04 07:38:43;;;;;;;1.70;1.60;;;;;;;11.51;61.06;99228.12;4472520;31;34247;-81
2024/03/04 07:41:11;;;;;;;4.15;1.33;;;;;;;11.53;60.67;99226.25;4487140;31;33078;-81
2024/03/04 07:43:40;;;;;;;4.07;3.28;;;;;;;11.72;59.56;99232.19;4474145;31;32257;-82
2024/03/04 07:46:08;;;;;;;3.95;2.65;;;;;;;11.79;58.92;99230.91;4483901;31;33629;-82
2024/03/04 07:48:36;;;;;;;2.75;2.22;;;;;;;11.90;57.93;99226.81;4463283;31;35549;-82
2024/03/04 07:51:05;;;;;;;4.05;1.90;;;;;;;11.84;58.21;99221.88;4486382;31;33906;-81
2024/03/04 07:53:33;;;;;;;1.73;1.62;;;;;;;11.66;59.48;99224.63;4464809;31;32649;-81
2024/03/04 07:56:01;;;;;;;2.95;2.33;;;;;;;11.82;58.15;99216.69;4476074;31;33441;-82
2024/03/04 07:58:28;;;;;;;4.03;2.10;;;;;;;11.86;58.20;99220.84;4474021;31;33919;-81
2024/03/04 08:00:56;;;;;;;0.93;0.80;;;;;;;11.65;59.07;99227.34;4472422;31;33612;-81
2024/03/04 08:03:27;;;;;;;2.20;1.87;;;;;;;11.84;58.43;99228.03;4488208;31;31494;-81
2024/03/04 08:05:55;;;;;;;3.95;1.60;;;;;;;12.16;57.28;99220.84;4476613;31;31835;-81
2024/03/04 08:08:23;;;;;;;0.70;0.60;;;;;;;12.21;56.72;99228.53;4476945;31;33561;-82
2024/03/04 08:10:51;;;;;;;0.95;0.95;;;;;;;12.38;55.96;99233.66;4463814;31;33379;-81
2024/03/04 08:13:18;;;;;;;2.37;1.70;;;;;;;12.41;55.99;99233.47;4477320;31;33631;-82
2024/03/04 08:15:48;;;;;;;1.95;1.85;;;;;;;12.42;56.42;99229.88;4476668;31;34285;-81
2024/03/04 08:18:17;;;;;;;3.85;1.45;;;;;;;12.05;57.58;99221.47;4489483;31;33504;-81
2024/03/04 08:20:47;;;;;;;5.32;2.75;;;;;;;12.23;57.36;99226.63;4479281;31;34642;-82
2024/03/04 08:23:15;;;;;;;2.53;2.22;;;;;;;12.68;56.22;99230.94;4474453;31;34018;-81
2024/03/04 08:25:43;;;;;;;1.67;1.58;;;;;;;13.06;54.53;99227.72;4475019;31;32995;-82
2024/03/04 08:28:11;;;;;;;2.35;2.15;;;;;;;12.88;55.66;99226.22;4488906;31;33886;-82
2024/03/04 08:30:54;;;;;;;4.18;2.58;;;;;;;12.66;55.75;99237.28;4488628;31;34762;-82
2024/03/04 08:33:22;;;;;;;1.12;1.12;;;;;;;12.98;55.25;99233.47;4487964;31;33323;-82
2024/03/04 08:35:50;;;;;;;6.93;3.45;;;;;;;13.21;55.31;99233.84;4473802;31;33275;-82
2024/03/04 08:38:18;;;;;;;1.12;1.08;;;;;;;13.27;54.11;99229.03;4463166;31;33316;-82
2024/03/04 08:40:45;;;;;;;6.00;3.60;;;;;;;13.56;53.25;99229.78;4490339;31;31488;-81
2024/03/04 08:43:13;;;;;;;7.75;3.90;;;;;;;13.56;52.96;99240.41;4473675;31;33137;-82
2024/03/04 08:45:41;;;;;;;6.70;2.55;;;;;;;13.03;54.69;99236.69;4489482;31;32610;-81
2024/03/04 08:48:09;;;;;;;6.43;2.35;;;;;;;13.16;55.15;99243.88;4476390;31;34218;-82
2024/03/04 08:50:37;;;;;;;5.05;2.15;;;;;;;13.48;54.55;99225.94;4477933;31;34449;-82
2024/03/04 08:53:05;;;;;;;1.90;1.65;;;;;;;13.29;54.46;99223.63;4477856;31;33151;-82
2024/03/04 08:55:33;;;;;;;1.27;1.25;;;;;;;13.47;53.98;99230.38;4478338;31;32466;-82
2024/03/04 08:58:00;;;;;;;2.22;1.80;;;;;;;14.16;52.19;99219.69;4489716;31;33798;-83
2024/03/04 09:00:29;;;;;;;3.40;3.12;;;;;;;14.11;53.00;99227.12;4476904;31;33923;-82
2024/03/04 09:02:56;;;;;;;3.47;2.08;;;;;;;14.20;52.85;99231.81;4475699;31;33522;-82
2024/03/04 09:05:24;;;;;;;2.80;2.58;;;;;;;14.45;52.31;99226.50;4489993;31;31454;-82
2024/03/04 09:07:52;;;;;;;3.17;2.85;;;;;;;14.67;51.40;99228.59;4477669;31;32684;-81
2024/03/04 09:10:21;;;;;;;2.87;2.67;;;;;;;14.76;52.00;99227.91;4466160;31;33142;-81
2024/03/04 09:12:48;;;;;;;2.90;2.70;;;;;;;14.69;51.24;99228.47;4477260;31;33648;-82
2024/03/04 09:15:17;;;;;;;15.95;3.10;;;;;;;14.75;50.76;99236.00;4475213;31;32254;-82
2024/03/04 09:17:45;;;;;;;2.35;2.15;;;;;;;14.88;50.68;99226.22;4488020;31;33822;-82
2024/03/04 09:20:12;;;;;;;1.75;1.65;;;;;;;15.06;49.98;99224.06;4463560;31;33282;-82
2024/03/04 09:22:40;;;;;;;1.83;1.62;;;;;;;15.26;49.98;99230.63;4463496;31;33822;-82
2024/03/04 09:25:08;;;;;;;2.00;1.90;;;;;;;14.93;50.75;99228.56;4474057;31;32003;-82
2024/03/04 09:27:36;;;;;;;3.17;1.52;;;;;;;15.25;49.61;99228.91;4486807;31;33796;-82
2024/03/04 09:30:06;;;;;;;3.30;2.83;;;;;;;15.20;50.39;99229.25;4489301;31;33058;-82
2024/03/04 09:32:34;;;;;;;4.68;1.90;;;;;;;14.85;50.43;99227.25;4476246;31;33511;-82
2024/03/04 09:35:03;;;;;;;1.33;1.23;;;;;;;14.65;51.96;99229.63;4477362;31;33011;-82
2024/03/04 09:37:31;;;;;;;2.75;2.53;;;;;;;15.18;50.92;99225.00;4476829;31;33784;-82
2024/03/04 09:39:58;;;;;;;1.48;1.12;;;;;;;15.36;49.11;99221.84;4474278;31;33279;-82
2024/03/04 09:42:32;;;;;;;1.62;1.52;;;;;;;14.72;50.47;99230.91;4488506;31;32523;-82
2024/03/04 09:45:00;;;;;;;4.20;2.55;;;;;;;15.20;50.29;99225.75;4466864;31;32510;-82
2024/03/04 09:47:30;;;;;;;3.92;3.60;;;;;;;15.65;48.97;99226.88;4475848;31;32681;-82
2024/03/04 09:49:57;;;;;;;13.57;2.58;;;;;;;15.34;50.13;99230.91;4474085;31;33836;-82
2024/03/04 09:52:27;;;;;;;4.62;2.25;;;;;;;15.85;48.84;99228.91;4473444;31;32497;-82
2024/03/04 09:54:56;;;;;;;1.48;1.37;;;;;;;15.53;48.66;99233.09;4474269;31;32760;-82
2024/03/04 09:57:29;;;;;;;3.65;1.58;;;;;;;15.94;49.55;99232.69;4499981;31;35401;-82
2024/03/04 10:00:01;;;;;;;1.92;1.30;;;;;;;15.32;49.12;99232.81;4475659;31;33784;-82
2024/03/04 10:02:36;;;;;;;3.17;2.10;;;;;;;15.49;49.27;99226.28;4487585;31;33525;-81
2024/03/04 10:05:04;;;;;;;2.17;2.00;;;;;;;15.63;48.53;99228.78;4477271;31;33432;-82
2024/03/04 10:07:36;;;;;;;3.00;2.62;;;;;;;15.85;49.14;99222.75;4476880;31;32292;-82
2024/03/04 10:10:05;;;;;;;4.70;3.05;;;;;;;15.68;48.52;99217.84;4475606;31;33624;-82
2024/03/04 10:12:33;;;;;;;5.87;2.75;;;;;;;15.99;48.80;99219.88;4465060;31;33161;-82
2024/03/04 10:15:03;;;;;;;2.03;1.83;;;;;;;16.48;46.33;99210.84;4473585;31;33089;-82
2024/03/04 10:17:31;;;;;;;2.67;2.25;;;;;;;16.43;47.11;99213.03;4476698;31;32443;-82
2024/03/04 10:20:07;;;;;;;9.15;3.10;;;;;;;16.67;46.37;99201.41;4474644;31;33743;-82
2024/03/04 10:22:38;;;;;;;4.78;2.87;;;;;;;16.71;46.60;99205.50;4445501;31;35163;-82
2024/03/04 10:25:10;;;;;;;2.62;2.15;;;;;;;16.93;46.23;99208.22;4462921;31;30807;-82
2024/03/04 10:27:39;;;;;;;;;;;;;;;17.21;45.12;99200.69;4488743;31;33974;-82
2024/03/04 10:30:11;;;;;;;0.95;0.93;;;;;;;17.25;45.66;99197.66;4474162;31;34143;-82
2024/03/04 10:33:04;;;;;;;8.35;2.75;;;;;;;17.84;42.88;99185.72;4473975;31;33419;-82
2024/03/04 10:35:32;;;;;;;3.22;2.12;;;;;;;17.21;44.73;99209.53;4489711;31;32620;-82
2024/03/04 10:38:02;;;;;;;2.28;2.10;;;;;;;17.63;44.43;99194.53;4476533;31;33650;-82
2024/03/04 10:40:36;;;;;;;2.05;1.27;;;;;;;18.15;43.26;99192.87;4474230;31;32743;-82
2024/03/04 10:43:06;;;;;;;3.37;2.17;;;;;;;18.20;43.66;99197.81;4474846;31;32316;-82
2024/03/04 10:45:34;;;;;;;4.15;3.28;;;;;;;18.83;41.84;99184.41;4475456;31;32748;-82
2024/03/04 10:48:03;;;;;;;1.95;1.62;;;;;;;18.24;42.93;99187.72;4488405;31;33202;-82
2024/03/04 10:50:31;;;;;;;2.87;2.65;;;;;;;18.23;42.92;99183.34;4468884;31;32613;-82
2024/03/04 10:52:59;;;;;;;2.65;2.37;;;;;;;17.90;43.08;99179.91;4475546;31;34262;-82
2024/03/04 10:55:30;;;;;;;2.22;1.80;;;;;;;17.90;43.24;99185.25;4475292;31;33594;-82
2024/03/04 10:58:01;;;;;;;2.75;2.35;;;;;;;17.95;43.04;99185.69;4475112;31;33438;-82
2024/03/04 11:00:32;;;;;;;6.22;3.22;;;;;;;17.53;43.70;99172.22;4472046;31;34829;-82
2024/03/04 11:03:01;;;;;;;7.10;2.90;;;;;;;17.91;43.95;99176.25;4488583;31;31449;-82
2024/03/04 11:05:32;;;;;;;2.40;1.25;;;;;;;18.17;42.43;99161.50;4473377;31;33182;-82
2024/03/04 11:08:09;;;;;;;2.22;1.98;;;;;;;18.48;40.88;99166.06;4488075;31;32526;-82
2024/03/04 11:10:41;;;;;;;1.65;1.48;;;;;;;18.60;41.20;99168.50;4475855;31;32310;-82
2024/03/04 11:13:22;;;;;;;1.42;1.15;;;;;;;18.79;40.75;99161.59;4460104;31;32056;-83
2024/03/04 11:16:07;;;;;;;1.98;1.87;;;;;;;18.73;41.28;99164.81;4464055;31;32712;-83
2024/03/04 11:19:03;;;;;;;1.50;1.40;;;;;;;18.85;40.67;99161.06;4474633;31;32032;-83
2024/03/04 11:21:31;;;;;;;2.40;2.20;;;;;;;18.79;40.39;99166.94;4492015;31;33761;-83
2024/03/04 11:24:02;;;;;;;1.40;1.12;;;;;;;18.76;40.44;99162.72;4472231;31;32535;-83
2024/03/04 11:26:30;;;;;;;2.23;2.07;;;;;;;18.67;40.88;99163.50;4478757;31;32996;-83
2024/03/04 11:29:00;;;;;;;11.57;3.25;;;;;;;18.62;42.13;99166.56;4473979;31;33584;-82
2024/03/04 11:31:29;;;;;;;2.30;1.98;;;;;;;19.15;40.11;99162.84;4476649;31;33967;-83
2024/03/04 11:34:05;;;;;;;1.75;1.58;;;;;;;19.28;41.00;99163.44;4467936;31;32241;-83
2024/03/04 11:36:39;;;;;;;3.95;2.37;;;;;;;19.02;39.86;99152.38;4476591;31;32710;-83
2024/03/04 11:39:20;;;;;;;3.37;2.50;;;;;;;19.50;39.82;99150.78;4463351;31;34922;-83
2024/03/04 11:41:51;;;;;;;1.45;1.35;;;;;;;19.59;39.56;99142.75;4490131;31;33694;-83